sensor_id;sensor_type;location;lat;lon;timestamp;pressure;altitude;pressure_sealevel;temperature;humidity
27425;BME280;15244;49.088;11.886;2024-01-06T00:04:48;94570.22;;;8.03;56.87
27425;BME280;15244;49.088;11.886;2024-01-06T00:09:49;94570.59;;;8.01;57.07
27425;BME280;15244;49.088;11.886;2024-01-06T00:14:51;94574.09;;;8.02;57.24
27425;BME280;15244;49.088;11.886;2024-01-06T00:19:53;94569.84;;;8.01;57.17
27425;BME280;15244;49.088;11.886;2024-01-06T00:24:55;94569.44;;;8.02;57.06
27425;BME280;15244;49.088;11.886;2024-01-06T00:29:57;94573.28;;;8.05;57.17
27425;BME280;15244;49.088;11.886;2024-01-06T00:34:58;94568.25;;;8.07;57.23
27425;BME280;15244;49.088;11.886;2024-01-06T00:40:00;94576.38;;;8.07;57.24
27425;BME280;15244;49.088;11.886;2024-01-06T00:45:02;94566.69;;;8.10;57.15
27425;BME280;15244;49.088;11.886;2024-01-06T00:50:05;94570.19;;;8.10;57.13
27425;BME280;15244;49.088;11.886;2024-01-06T00:55:07;94565.53;;;8.11;57.19
27425;BME280;15244;49.088;11.886;2024-01-06T01:00:11;94569.00;;;8.08;57.19
27425;BME280;15244;49.088;11.886;2024-01-06T01:05:13;94572.53;;;8.08;57.39
27425;BME280;15244;49.088;11.886;2024-01-06T01:10:15;94584.91;;;8.09;57.33
27425;BME280;15244;49.088;11.886;2024-01-06T01:15:16;94584.91;;;8.09;57.38
27425;BME280;15244;49.088;11.886;2024-01-06T01:20:18;94586.09;;;8.08;57.16
27425;BME280;15244;49.088;11.886;2024-01-06T01:25:19;94585.69;;;8.10;57.15
27425;BME280;15244;49.088;11.886;2024-01-06T01:30:21;94584.53;;;8.11;57.39
27425;BME280;15244;49.088;11.886;2024-01-06T01:35:23;94576.78;;;8.13;57.19
27425;BME280;15244;49.088;11.886;2024-01-06T01:40:25;94584.91;;;8.13;57.07
27425;BME280;15244;49.088;11.886;2024-01-06T01:45:26;94580.25;;;8.13;57.64
27425;BME280;15244;49.088;11.886;2024-01-06T01:50:28;94581.41;;;8.12;57.29
27425;BME280;15244;49.088;11.886;2024-01-06T01:55:32;94574.81;;;8.10;57.22
27425;BME280;15244;49.088;11.886;2024-01-06T02:00:34;94569.00;;;8.08;57.39
27425;BME280;15244;49.088;11.886;2024-01-06T02:05:36;94573.69;;;8.07;57.36
27425;BME280;15244;49.088;11.886;2024-01-06T02:10:37;94564.75;;;8.07;57.25
27425;BME280;15244;49.088;11.886;2024-01-06T02:15:39;94561.28;;;8.06;57.49
27425;BME280;15244;49.088;11.886;2024-01-06T02:20:43;94565.53;;;8.07;57.57
27425;BME280;15244;49.088;11.886;2024-01-06T02:25:45;94566.72;;;8.06;57.37
27425;BME280;15244;49.088;11.886;2024-01-06T02:30:46;94565.16;;;8.05;57.53
27425;BME280;15244;49.088;11.886;2024-01-06T02:35:48;94572.53;;;8.04;57.33
27425;BME280;15244;49.088;11.886;2024-01-06T02:40:50;94567.50;;;8.03;57.33
27425;BME280;15244;49.088;11.886;2024-01-06T02:45:51;94572.13;;;8.02;57.47
27425;BME280;15244;49.088;11.886;2024-01-06T02:50:53;94567.88;;;8.01;57.59
27425;BME280;15244;49.088;11.886;2024-01-06T02:55:55;94577.97;;;8.01;57.50
27425;BME280;15244;49.088;11.886;2024-01-06T03:00:56;94573.31;;;8.01;57.62
27425;BME280;15244;49.088;11.886;2024-01-06T03:05:58;94584.94;;;8.02;57.89
27425;BME280;15244;49.088;11.886;2024-01-06T03:11:01;94587.28;;;8.00;57.79
27425;BME280;15244;49.088;11.886;2024-01-06T03:16:05;94584.56;;;8.03;57.80
27425;BME280;15244;49.088;11.886;2024-01-06T03:21:19;94579.50;;;8.02;58.18
27425;BME280;15244;49.088;11.886;2024-01-06T03:26:22;94588.44;;;8.02;58.00
27425;BME280;15244;49.088;11.886;2024-01-06T03:31:23;94585.31;;;8.04;57.78
27425;BME280;15244;49.088;11.886;2024-01-06T03:36:25;94586.09;;;8.04;57.98
27425;BME280;15244;49.088;11.886;2024-01-06T03:41:27;94585.72;;;8.06;58.23
27425;BME280;15244;49.088;11.886;2024-01-06T03:46:29;94596.16;;;8.08;58.02
27425;BME280;15244;49.088;11.886;2024-01-06T03:51:31;94598.88;;;8.08;58.07
27425;BME280;15244;49.088;11.886;2024-01-06T03:56:32;94595.00;;;8.09;58.09
27425;BME280;15244;49.088;11.886;2024-01-06T04:01:34;94604.31;;;8.08;57.97
27425;BME280;15244;49.088;11.886;2024-01-06T04:06:37;94609.72;;;8.08;58.39
27425;BME280;15244;49.088;11.886;2024-01-06T04:11:39;94608.59;;;8.09;58.19
27425;BME280;15244;49.088;11.886;2024-01-06T04:16:40;94620.22;;;8.09;58.30
27425;BME280;15244;49.088;11.886;2024-01-06T04:21:42;94629.13;;;8.10;58.02
27425;BME280;15244;49.088;11.886;2024-01-06T04:26:43;94629.91;;;8.07;57.86
27425;BME280;15244;49.088;11.886;2024-01-06T04:31:46;94631.44;;;8.08;58.07
27425;BME280;15244;49.088;11.886;2024-01-06T04:36:48;94632.63;;;8.07;58.22
27425;BME280;15244;49.088;11.886;2024-01-06T04:41:51;94633.81;;;8.06;57.84
27425;BME280;15244;49.088;11.886;2024-01-06T04:46:52;94640.00;;;8.06;58.34
27425;BME280;15244;49.088;11.886;2024-01-06T04:51:54;94633.81;;;8.06;58.14
27425;BME280;15244;49.088;11.886;2024-01-06T04:56:58;94640.78;;;8.03;58.30
27425;BME280;15244;49.088;11.886;2024-01-06T05:02:00;94647.38;;;8.02;58.01
27425;BME280;15244;49.088;11.886;2024-01-06T05:07:03;94642.34;;;8.00;58.11
27425;BME280;15244;49.088;11.886;2024-01-06T05:12:04;94651.25;;;8.01;58.20
27425;BME280;15244;49.088;11.886;2024-01-06T05:17:06;94653.94;;;8.04;58.27
27425;BME280;15244;49.088;11.886;2024-01-06T05:22:08;94644.66;;;8.06;58.04
27425;BME280;15244;49.088;11.886;2024-01-06T05:27:09;94652.41;;;8.07;58.19
27425;BME280;15244;49.088;11.886;2024-01-06T05:32:16;94655.88;;;8.08;58.02
27425;BME280;15244;49.088;11.886;2024-01-06T05:37:17;94653.16;;;8.08;58.36
27425;BME280;15244;49.088;11.886;2024-01-06T05:42:19;94648.53;;;8.08;57.68
27425;BME280;15244;49.088;11.886;2024-01-06T05:47:21;94648.53;;;8.08;57.73
27425;BME280;15244;49.088;11.886;2024-01-06T05:52:22;94645.03;;;8.08;57.82
27425;BME280;15244;49.088;11.886;2024-01-06T05:57:25;94649.69;;;8.07;57.88
27425;BME280;15244;49.088;11.886;2024-01-06T06:02:26;94647.38;;;8.06;57.89
27425;BME280;15244;49.088;11.886;2024-01-06T06:07:28;94664.81;;;8.04;57.73
27425;BME280;15244;49.088;11.886;2024-01-06T06:12:30;94672.56;;;8.02;57.93
27425;BME280;15244;49.088;11.886;2024-01-06T06:17:32;94678.00;;;8.02;57.83
27425;BME280;15244;49.088;11.886;2024-01-06T06:22:34;94689.66;;;8.03;57.89
27425;BME280;15244;49.088;11.886;2024-01-06T06:27:36;94690.41;;;8.00;57.74
27425;BME280;15244;49.088;11.886;2024-01-06T06:32:38;94694.31;;;7.95;57.67
27425;BME280;15244;49.088;11.886;2024-01-06T06:37:40;94701.69;;;7.91;57.55
27425;BME280;15244;49.088;11.886;2024-01-06T06:42:41;94711.75;;;7.87;57.58
27425;BME280;15244;49.088;11.886;2024-01-06T06:47:43;94723.81;;;7.82;57.46
27425;BME280;15244;49.088;11.886;2024-01-06T06:52:45;94738.94;;;7.80;57.61
27425;BME280;15244;49.088;11.886;2024-01-06T06:57:47;94746.28;;;7.76;57.75
27425;BME280;15244;49.088;11.886;2024-01-06T07:02:48;94750.56;;;7.70;57.50
27425;BME280;15244;49.088;11.886;2024-01-06T07:07:50;94761.41;;;7.66;57.41
27425;BME280;15244;49.088;11.886;2024-01-06T07:12:52;94775.75;;;7.63;57.96
27425;BME280;15244;49.088;11.886;2024-01-06T07:17:54;94780.81;;;7.65;57.96
27425;BME280;15244;49.088;11.886;2024-01-06T07:22:55;94780.00;;;7.60;57.31
27425;BME280;15244;49.088;11.886;2024-01-06T07:27:57;94787.00;;;7.58;57.46
27425;BME280;15244;49.088;11.886;2024-01-06T07:32:59;94778.09;;;7.57;57.46
27425;BME280;15244;49.088;11.886;2024-01-06T07:38:01;94778.44;;;7.59;57.17
27425;BME280;15244;49.088;11.886;2024-01-06T07:43:03;94784.25;;;7.62;57.35
27425;BME280;15244;49.088;11.886;2024-01-06T07:48:06;94787.00;;;7.65;57.24
27425;BME280;15244;49.088;11.886;2024-01-06T07:53:07;94784.69;;;7.67;57.42
27425;BME280;15244;49.088;11.886;2024-01-06T07:58:09;94790.47;;;7.69;56.96
27425;BME280;15244;49.088;11.886;2024-01-06T08:03:10;94797.47;;;7.70;57.18
27425;BME280;15244;49.088;11.886;2024-01-06T08:08:13;94808.69;;;7.69;57.11
27425;BME280;15244;49.088;11.886;2024-01-06T08:13:18;94806.75;;;7.69;57.09
27425;BME280;15244;49.088;11.886;2024-01-06T08:18:19;94814.53;;;7.67;56.45
27425;BME280;15244;49.088;11.886;2024-01-06T08:23:23;94810.63;;;7.61;56.96
27425;BME280;15244;49.088;11.886;2024-01-06T08:28:24;94814.50;;;7.64;56.70
27425;BME280;15244;49.088;11.886;2024-01-06T08:33:26;94817.59;;;7.62;56.77
27425;BME280;15244;49.088;11.886;2024-01-06T08:38:28;94822.66;;;7.60;56.95
27425;BME280;15244;49.088;11.886;2024-01-06T08:43:29;94833.50;;;7.60;56.88
27425;BME280;15244;49.088;11.886;2024-01-06T08:48:31;94827.28;;;7.56;57.06
27425;BME280;15244;49.088;11.886;2024-01-06T08:53:36;94831.53;;;7.57;56.34
27425;BME280;15244;49.088;11.886;2024-01-06T08:58:38;94834.28;;;7.60;57.12
27425;BME280;15244;49.088;11.886;2024-01-06T09:03:39;94840.06;;;7.52;57.21
27425;BME280;15244;49.088;11.886;2024-01-06T09:08:41;94849.34;;;7.44;57.00
27425;BME280;15244;49.088;11.886;2024-01-06T09:13:42;94850.50;;;7.43;56.81
27425;BME280;15244;49.088;11.886;2024-01-06T09:18:44;94863.28;;;7.38;57.16
27425;BME280;15244;49.088;11.886;2024-01-06T09:23:46;94868.31;;;7.36;56.67
27425;BME280;15244;49.088;11.886;2024-01-06T09:28:47;94863.66;;;7.41;56.80
27425;BME280;15244;49.088;11.886;2024-01-06T09:33:49;94869.88;;;7.41;57.00
27425;BME280;15244;49.088;11.886;2024-01-06T09:38:51;94868.69;;;7.38;57.04
27425;BME280;15244;49.088;11.886;2024-01-06T09:43:53;94863.28;;;7.35;57.25
27425;BME280;15244;49.088;11.886;2024-01-06T09:48:54;94866.00;;;7.35;56.90
27425;BME280;15244;49.088;11.886;2024-01-06T09:53:58;94866.75;;;7.39;57.15
27425;BME280;15244;49.088;11.886;2024-01-06T09:59:01;94867.19;;;7.45;57.13
27425;BME280;15244;49.088;11.886;2024-01-06T10:04:02;94869.50;;;7.57;57.37
27425;BME280;15244;49.088;11.886;2024-01-06T10:09:04;94871.47;;;7.60;57.20
27425;BME280;15244;49.088;11.886;2024-01-06T10:14:06;94871.09;;;7.65;57.13
27425;BME280;15244;49.088;11.886;2024-01-06T10:19:08;94874.19;;;7.71;57.01
27425;BME280;15244;49.088;11.886;2024-01-06T10:24:10;94872.66;;;7.73;56.99
27425;BME280;15244;49.088;11.886;2024-01-06T10:29:13;94873.81;;;7.76;56.70
27425;BME280;15244;49.088;11.886;2024-01-06T10:34:14;94879.25;;;7.76;56.59
27425;BME280;15244;49.088;11.886;2024-01-06T10:39:18;94885.47;;;7.80;56.81
27425;BME280;15244;49.088;11.886;2024-01-06T10:44:21;94891.66;;;7.80;56.90
27425;BME280;15244;49.088;11.886;2024-01-06T10:49:23;94884.28;;;7.81;56.63
27425;BME280;15244;49.088;11.886;2024-01-06T10:54:27;94892.06;;;7.86;57.07
27425;BME280;15244;49.088;11.886;2024-01-06T10:59:32;94897.09;;;7.88;56.98
27425;BME280;15244;49.088;11.886;2024-01-06T11:04:35;94880.03;;;7.87;56.82
27425;BME280;15244;49.088;11.886;2024-01-06T11:09:39;94875.38;;;7.91;56.41
27425;BME280;15244;49.088;11.886;2024-01-06T11:14:45;94861.81;;;7.84;56.51
27425;BME280;15244;49.088;11.886;2024-01-06T11:19:47;94858.72;;;7.86;56.21
27425;BME280;15244;49.088;11.886;2024-01-06T11:24:53;94855.63;;;7.80;56.16
27425;BME280;15244;49.088;11.886;2024-01-06T11:29:58;94864.13;;;7.82;56.36
27425;BME280;15244;49.088;11.886;2024-01-06T11:35:06;94857.16;;;7.85;56.13
27425;BME280;15244;49.088;11.886;2024-01-06T11:40:21;94861.03;;;7.80;55.97
27425;BME280;15244;49.088;11.886;2024-01-06T11:45:26;94856.75;;;7.68;56.10
27425;BME280;15244;49.088;11.886;2024-01-06T11:50:28;94861.00;;;7.66;56.06
27425;BME280;15244;49.088;11.886;2024-01-06T11:55:30;94858.66;;;7.57;56.14
27425;BME280;15244;49.088;11.886;2024-01-06T12:00:36;94852.47;;;7.53;55.95
27425;BME280;15244;49.088;11.886;2024-01-06T12:05:42;94852.84;;;7.51;55.95
27425;BME280;15244;49.088;11.886;2024-01-06T12:11:07;94855.56;;;7.48;55.84
27425;BME280;15244;49.088;11.886;2024-01-06T12:16:09;94854.75;;;7.44;55.88
27425;BME280;15244;49.088;11.886;2024-01-06T12:21:10;94847.78;;;7.39;55.57
27425;BME280;15244;49.088;11.886;2024-01-06T12:26:13;94853.59;;;7.37;55.59
27425;BME280;15244;49.088;11.886;2024-01-06T12:31:15;94852.44;;;7.38;55.67
27425;BME280;15244;49.088;11.886;2024-01-06T12:36:17;94850.13;;;7.37;55.30
27425;BME280;15244;49.088;11.886;2024-01-06T12:41:27;94843.16;;;7.43;55.14
27425;BME280;15244;49.088;11.886;2024-01-06T12:46:29;94831.53;;;7.43;55.26
27425;BME280;15244;49.088;11.886;2024-01-06T12:51:31;94840.44;;;7.43;55.03
27425;BME280;15244;49.088;11.886;2024-01-06T12:56:32;94833.06;;;7.44;54.99
27425;BME280;15244;49.088;11.886;2024-01-06T13:01:34;94837.75;;;7.50;54.98
27425;BME280;15244;49.088;11.886;2024-01-06T13:06:36;94829.22;;;7.55;55.27
27425;BME280;15244;49.088;11.886;2024-01-06T13:11:38;94836.97;;;7.50;54.72
27425;BME280;15244;49.088;11.886;2024-01-06T13:16:39;94829.97;;;7.49;54.70
27425;BME280;15244;49.088;11.886;2024-01-06T13:21:41;94836.19;;;7.53;55.03
27425;BME280;15244;49.088;11.886;2024-01-06T13:26:42;94842.78;;;7.55;54.90
27425;BME280;15244;49.088;11.886;2024-01-06T13:31:44;94843.16;;;7.54;55.19
27425;BME280;15244;49.088;11.886;2024-01-06T13:36:46;94847.41;;;7.48;54.67
27425;BME280;15244;49.088;11.886;2024-01-06T13:41:49;94854.00;;;7.43;54.41
27425;BME280;15244;49.088;11.886;2024-01-06T13:46:50;94856.72;;;7.40;54.83
27425;BME280;15244;49.088;11.886;2024-01-06T13:51:52;94852.44;;;7.38;54.79
27425;BME280;15244;49.088;11.886;2024-01-06T13:56:54;94850.47;;;7.39;54.68
27425;BME280;15244;49.088;11.886;2024-01-06T14:01:56;94867.13;;;7.34;54.35
27425;BME280;15244;49.088;11.886;2024-01-06T14:06:57;94861.34;;;7.32;54.76
27425;BME280;15244;49.088;11.886;2024-01-06T14:12:04;94861.72;;;7.34;54.81
27425;BME280;15244;49.088;11.886;2024-01-06T14:17:07;94875.28;;;7.37;54.64
27425;BME280;15244;49.088;11.886;2024-01-06T14:22:08;94878.78;;;7.38;54.24
27425;BME280;15244;49.088;11.886;2024-01-06T14:27:10;94876.47;;;7.40;54.42
27425;BME280;15244;49.088;11.886;2024-01-06T14:32:12;94874.50;;;7.44;54.37
27425;BME280;15244;49.088;11.886;2024-01-06T14:37:14;94880.38;;;7.50;54.32
27425;BME280;15244;49.088;11.886;2024-01-06T14:42:16;94879.19;;;7.51;54.14
27425;BME280;15244;49.088;11.886;2024-01-06T14:47:20;94883.81;;;7.47;53.93
27425;BME280;15244;49.088;11.886;2024-01-06T14:52:22;94886.91;;;7.42;54.03
27425;BME280;15244;49.088;11.886;2024-01-06T14:57:23;94892.34;;;7.38;54.40
27425;BME280;15244;49.088;11.886;2024-01-06T15:02:25;94900.09;;;7.40;53.79
27425;BME280;15244;49.088;11.886;2024-01-06T15:07:27;94893.09;;;7.38;54.03
27425;BME280;15244;49.088;11.886;2024-01-06T15:12:28;94900.84;;;7.36;54.20
27425;BME280;15244;49.088;11.886;2024-01-06T15:17:30;94909.78;;;7.37;54.10
27425;BME280;15244;49.088;11.886;2024-01-06T15:22:32;94902.78;;;7.36;54.05
27425;BME280;15244;49.088;11.886;2024-01-06T15:27:35;94911.69;;;7.33;54.06
27425;BME280;15244;49.088;11.886;2024-01-06T15:32:37;94911.28;;;7.31;53.98
27425;BME280;15244;49.088;11.886;2024-01-06T15:37:40;94916.72;;;7.27;53.97
27425;BME280;15244;49.088;11.886;2024-01-06T15:42:41;94920.97;;;7.25;53.88
27425;BME280;15244;49.088;11.886;2024-01-06T15:47:43;94913.97;;;7.20;53.93
27425;BME280;15244;49.088;11.886;2024-01-06T15:52:45;94924.81;;;7.16;53.64
27425;BME280;15244;49.088;11.886;2024-01-06T15:57:48;94918.19;;;7.14;53.87
27425;BME280;15244;49.088;11.886;2024-01-06T16:02:49;94917.00;;;7.11;54.01
27425;BME280;15244;49.088;11.886;2024-01-06T16:07:53;94920.88;;;7.07;53.52
27425;BME280;15244;49.088;11.886;2024-01-06T16:12:54;94913.13;;;7.05;53.59
27425;BME280;15244;49.088;11.886;2024-01-06T16:17:59;94926.69;;;7.09;53.92
27425;BME280;15244;49.088;11.886;2024-01-06T16:23:00;94926.31;;;7.10;53.44
27425;BME280;15244;49.088;11.886;2024-01-06T16:28:02;94929.00;;;7.10;53.84
27425;BME280;15244;49.088;11.886;2024-01-06T16:33:05;94932.53;;;7.14;53.75
27425;BME280;15244;49.088;11.886;2024-01-06T16:38:08;94931.34;;;7.12;53.70
27425;BME280;15244;49.088;11.886;2024-01-06T16:43:09;94938.31;;;7.09;53.81
27425;BME280;15244;49.088;11.886;2024-01-06T16:48:11;94932.84;;;7.06;53.30
27425;BME280;15244;49.088;11.886;2024-01-06T16:53:13;94941.38;;;7.04;53.75
27425;BME280;15244;49.088;11.886;2024-01-06T16:58:15;94947.94;;;7.00;53.11
27425;BME280;15244;49.088;11.886;2024-01-06T17:03:16;94940.94;;;6.95;53.39
27425;BME280;15244;49.088;11.886;2024-01-06T17:08:18;94947.13;;;6.92;53.63
27425;BME280;15244;49.088;11.886;2024-01-06T17:13:20;94938.97;;;6.88;53.18
27425;BME280;15244;49.088;11.886;2024-01-06T17:18:23;94955.22;;;6.85;53.52
27425;BME280;15244;49.088;11.886;2024-01-06T17:23:25;94952.03;;;6.76;53.19
27425;BME280;15244;49.088;11.886;2024-01-06T17:28:26;94949.69;;;6.70;53.62
27425;BME280;15244;49.088;11.886;2024-01-06T17:33:28;94965.56;;;6.68;53.69
27425;BME280;15244;49.088;11.886;2024-01-06T17:38:30;94961.66;;;6.66;53.65
27425;BME280;15244;49.088;11.886;2024-01-06T17:43:33;94965.94;;;6.67;53.18
27425;BME280;15244;49.088;11.886;2024-01-06T17:48:35;94967.50;;;6.71;53.60
27425;BME280;15244;49.088;11.886;2024-01-06T17:53:37;94968.66;;;6.70;53.37
27425;BME280;15244;49.088;11.886;2024-01-06T17:58:39;94970.19;;;6.68;53.47
27425;BME280;15244;49.088;11.886;2024-01-06T18:03:41;94965.16;;;6.66;53.68
27425;BME280;15244;49.088;11.886;2024-01-06T18:08:42;94963.56;;;6.62;53.88
27425;BME280;15244;49.088;11.886;2024-01-06T18:13:44;94967.41;;;6.61;53.39
27425;BME280;15244;49.088;11.886;2024-01-06T18:18:45;94971.28;;;6.60;53.85
27425;BME280;15244;49.088;11.886;2024-01-06T18:23:47;94973.63;;;6.61;53.93
27425;BME280;15244;49.088;11.886;2024-01-06T18:28:49;94974.38;;;6.58;53.56
27425;BME280;15244;49.088;11.886;2024-01-06T18:33:50;94973.97;;;6.56;53.69
27425;BME280;15244;49.088;11.886;2024-01-06T18:38:52;94975.13;;;6.55;53.99
27425;BME280;15244;49.088;11.886;2024-01-06T18:43:54;94974.75;;;6.57;53.80
27425;BME280;15244;49.088;11.886;2024-01-06T18:48:55;94971.22;;;6.53;53.98
27425;BME280;15244;49.088;11.886;2024-01-06T18:53:57;94968.13;;;6.50;54.17
27425;BME280;15244;49.088;11.886;2024-01-06T18:59:00;94970.38;;;6.41;54.01
27425;BME280;15244;49.088;11.886;2024-01-06T19:04:02;94966.50;;;6.39;54.13
27425;BME280;15244;49.088;11.886;2024-01-06T19:09:03;94968.44;;;6.42;54.32
27425;BME280;15244;49.088;11.886;2024-01-06T19:14:05;94966.91;;;6.41;54.30
27425;BME280;15244;49.088;11.886;2024-01-06T19:19:06;94971.16;;;6.42;54.53
27425;BME280;15244;49.088;11.886;2024-01-06T19:24:10;94980.44;;;6.41;54.86
27425;BME280;15244;49.088;11.886;2024-01-06T19:29:15;94982.00;;;6.42;54.87
27425;BME280;15244;49.088;11.886;2024-01-06T19:34:17;94981.22;;;6.41;54.70
27425;BME280;15244;49.088;11.886;2024-01-06T19:39:19;94986.59;;;6.38;55.44
27425;BME280;15244;49.088;11.886;2024-01-06T19:44:21;94978.41;;;6.31;55.43
27425;BME280;15244;49.088;11.886;2024-01-06T19:49:22;94984.94;;;6.26;55.38
27425;BME280;15244;49.088;11.886;2024-01-06T19:54:24;94978.75;;;6.25;55.12
27425;BME280;15244;49.088;11.886;2024-01-06T19:59:26;94979.91;;;6.24;55.52
27425;BME280;15244;49.088;11.886;2024-01-06T20:04:27;94980.66;;;6.21;55.58
27425;BME280;15244;49.088;11.886;2024-01-06T20:09:29;94971.38;;;6.22;56.12
27425;BME280;15244;49.088;11.886;2024-01-06T20:14:32;94969.06;;;6.24;56.01
27425;BME280;15244;49.088;11.886;2024-01-06T20:19:33;94972.63;;;6.32;55.68
27425;BME280;15244;49.088;11.886;2024-01-06T20:24:35;94965.59;;;6.24;56.12
27425;BME280;15244;49.088;11.886;2024-01-06T20:29:37;94967.13;;;6.21;56.18
27425;BME280;15244;49.088;11.886;2024-01-06T20:34:38;94962.34;;;6.07;55.86
27425;BME280;15244;49.088;11.886;2024-01-06T20:39:40;94960.03;;;6.06;56.64
27425;BME280;15244;49.088;11.886;2024-01-06T20:44:43;94965.88;;;6.12;56.45
27425;BME280;15244;49.088;11.886;2024-01-06T20:49:44;94964.34;;;6.14;56.41
27425;BME280;15244;49.088;11.886;2024-01-06T20:54:46;94960.88;;;6.14;56.25
27425;BME280;15244;49.088;11.886;2024-01-06T20:59:48;94948.94;;;6.18;56.55
27425;BME280;15244;49.088;11.886;2024-01-06T21:04:50;94956.28;;;6.21;56.28
27425;BME280;15244;49.088;11.886;2024-01-06T21:09:51;94951.34;;;6.31;56.49
27425;BME280;15244;49.088;11.886;2024-01-06T21:14:53;94947.88;;;6.34;56.31
27425;BME280;15244;49.088;11.886;2024-01-06T21:19:56;94948.28;;;6.36;56.21
27425;BME280;15244;49.088;11.886;2024-01-06T21:24:58;94957.19;;;6.36;56.56
27425;BME280;15244;49.088;11.886;2024-01-06T21:30:00;94949.06;;;6.36;56.30
27425;BME280;15244;49.088;11.886;2024-01-06T21:35:06;94952.19;;;6.38;56.36
27425;BME280;15244;49.088;11.886;2024-01-06T21:40:08;94942.88;;;6.36;56.33
27425;BME280;15244;49.088;11.886;2024-01-06T21:45:10;94945.13;;;6.30;56.85
27425;BME280;15244;49.088;11.886;2024-01-06T21:50:12;94944.38;;;6.29;56.49
27425;BME280;15244;49.088;11.886;2024-01-06T21:55:15;94963.28;;;6.26;56.37
27425;BME280;15244;49.088;11.886;2024-01-06T22:00:18;94962.53;;;6.25;57.04
27425;BME280;15244;49.088;11.886;2024-01-06T22:05:21;94967.88;;;6.22;57.10
27425;BME280;15244;49.088;11.886;2024-01-06T22:10:22;94972.47;;;6.18;57.12
27425;BME280;15244;49.088;11.886;2024-01-06T22:15:25;94971.75;;;6.21;56.93
27425;BME280;15244;49.088;11.886;2024-01-06T22:20:27;94975.59;;;6.16;57.30
27425;BME280;15244;49.088;11.886;2024-01-06T22:25:29;94974.00;;;6.15;57.10
27425;BME280;15244;49.088;11.886;2024-01-06T22:30:30;94967.81;;;6.11;57.24
27425;BME280;15244;49.088;11.886;2024-01-06T22:35:32;94966.22;;;6.06;57.24
27425;BME280;15244;49.088;11.886;2024-01-06T22:40:34;94972.38;;;6.03;57.39
27425;BME280;15244;49.088;11.886;2024-01-06T22:45:35;94966.91;;;6.00;57.27
27425;BME280;15244;49.088;11.886;2024-01-06T22:50:39;94959.53;;;5.97;57.66
27425;BME280;15244;49.088;11.886;2024-01-06T22:55:42;94967.66;;;5.97;57.57
27425;BME280;15244;49.088;11.886;2024-01-06T23:00:44;94965.69;;;5.94;57.81
27425;BME280;15244;49.088;11.886;2024-01-06T23:05:47;94962.94;;;5.90;57.55
27425;BME280;15244;49.088;11.886;2024-01-06T23:10:49;94974.16;;;5.92;57.56
27425;BME280;15244;49.088;11.886;2024-01-06T23:15:51;94970.31;;;5.93;57.59
27425;BME280;15244;49.088;11.886;2024-01-06T23:20:54;94969.06;;;5.87;57.65
27425;BME280;15244;49.088;11.886;2024-01-06T23:25:56;94979.19;;;5.90;57.70
27425;BME280;15244;49.088;11.886;2024-01-06T23:30:58;94973.00;;;5.93;57.71
27425;BME280;15244;49.088;11.886;2024-01-06T23:36:00;94974.53;;;5.91;57.77
27425;BME280;15244;49.088;11.886;2024-01-06T23:41:02;94987.63;;;5.85;57.78
27425;BME280;15244;49.088;11.886;2024-01-06T23:46:03;94993.75;;;5.82;57.89
27425;BME280;15244;49.088;11.886;2024-01-06T23:51:05;94990.59;;;5.73;58.03
27425;BME280;15244;49.088;11.886;2024-01-06T23:56:07;94990.94;;;5.71;58.16
